Time;durP1;ratioP1;P1;durP2;ratioP2;P2;SDS_P1;SDS_P2;PMS_P1;PMS_P2;Temp;Humidity;BMP_temperature;BMP_pressure;BME280_temperature;BME280_humidity;BME280_pressure;Samples;Min_cycle;Max_cycle;Signal;HPM_P1;HPM_P2
2021/07/10 00:01:45;;;;;;;;;;;;;;;;;;5091607;28;19932;-64
2021/07/10 00:04:12;;;;;;;;;;;;;;;;;;5091374;28;20319;-65
2021/07/10 00:06:39;;;;;;;;;;;;;;;;;;5092372;28;19924;-64
2021/07/10 00:09:06;;;;;;;;;;;;;;;;;;5091302;28;19924;-70
2021/07/10 00:11:32;;;;;;;;;;;;;;;;;;5092722;28;19932;-65
2021/07/10 00:13:59;;;;;;;;;;;;;;;;;;5093356;28;19924;-67
2021/07/10 00:16:26;;;;;;;;;;;;;;;;;;5092789;28;19924;-65
2021/07/10 00:18:53;;;;;;;;;;;;;;;;;;5093473;28;19931;-65
2021/07/10 00:21:20;;;;;;;;;;;;;;;;;;5093253;28;19938;-65
2021/07/10 00:23:47;;;;;;;;;;;;;;;;;;5092865;28;19928;-64
2021/07/10 00:26:14;;;;;;;;;;;;;;;;;;5092423;28;19924;-64
2021/07/10 00:28:41;;;;;;;;;;;;;;;;;;5092624;28;19935;-64
2021/07/10 00:31:08;;;;;;;;;;;;;;;;;;5092374;28;19924;-65
2021/07/10 00:33:35;;;;;;;;;;;;;;;;;;5092679;28;19943;-66
2021/07/10 00:36:02;;;;;;;;;;;;;;;;;;5085628;28;19924;-66
2021/07/10 00:38:29;;;;;;;;;;;;;;;;;;5093732;28;20388;-66
2021/07/10 00:40:56;;;;;;;;;;;;;;;;;;5091954;28;19924;-66
2021/07/10 00:43:23;;;;;;;;;;;;;;;;;;5091237;28;19924;-65
2021/07/10 00:45:50;;;;;;;;;;;;;;;;;;5091341;28;19925;-64
2021/07/10 00:48:17;;;;;;;;;;;;;;;;;;5092751;28;20307;-65
2021/07/10 00:50:44;;;;;;;;;;;;;;;;;;5091934;28;19932;-65
2021/07/10 00:53:10;;;;;;;;;;;;;;;;;;5092776;28;19938;-65
2021/07/10 00:55:37;;;;;;;;;;;;;;;;;;5092452;28;20402;-66
2021/07/10 00:58:04;;;;;;;;;;;;;;;;;;5091646;28;19928;-68
2021/07/10 01:00:31;;;;;;;;;;;;;;;;;;5091678;28;19924;-65
2021/07/10 01:02:58;;;;;;;;;;;;;;;;;;5092383;28;19931;-66
2021/07/10 01:05:25;;;;;;;;;;;;;;;;;;5091299;28;19924;-67
2021/07/10 01:07:52;;;;;;;;;;;;;;;;;;5091710;28;20306;-67
2021/07/10 01:10:19;;;;;;;;;;;;;;;;;;5086987;28;19967;-65
2021/07/10 01:12:46;;;;;;;;;;;;;;;;;;5091993;28;19924;-64
2021/07/10 01:15:13;;;;;;;;;;;;;;;;;;5094609;28;20411;-66
2021/07/10 01:17:42;;;;;;;;;;;;;;;;;;5090376;28;19924;-65
2021/07/10 01:20:09;;;;;;;;;;;;;;;;;;5090175;28;19946;-64
2021/07/10 01:22:36;;;;;;;;;;;;;;;;;;5090582;28;20345;-66
2021/07/10 01:25:03;;;;;;;;;;;;;;;;;;5092874;28;19946;-64
2021/07/10 01:27:30;;;;;;;;;;;;;;;;;;5092060;28;20341;-64
2021/07/10 01:29:57;;;;;;;;;;;;;;;;;;5090837;28;19932;-65
2021/07/10 01:32:24;;;;;;;;;;;;;;;;;;5089436;28;19931;-65
2021/07/10 01:34:51;;;;;;;;;;;;;;;;;;5091462;28;19924;-64
2021/07/10 01:37:18;;;;;;;;;;;;;;;;;;5090753;28;19924;-64
2021/07/10 01:39:45;;;;;;;;;;;;;;;;;;5091372;28;19935;-65
2021/07/10 01:42:12;;;;;;;;;;;;;;;;;;5090726;28;19924;-66
2021/07/10 01:44:39;;;;;;;;;;;;;;;;;;5092699;28;19930;-65
2021/07/10 01:47:06;;;;;;;;;;;;;;;;;;5089904;28;19940;-67
2021/07/10 01:49:33;;;;;;;;;;;;;;;;;;5090858;28;19924;-69
2021/07/10 01:52:00;;;;;;;;;;;;;;;;;;5086084;28;20298;-68
2021/07/10 01:54:27;;;;;;;;;;;;;;;;;;5090118;28;19924;-66
2021/07/10 01:56:54;;;;;;;;;;;;;;;;;;5090178;28;19932;-67
2021/07/10 01:59:21;;;;;;;;;;;;;;;;;;5091172;28;19947;-68
2021/07/10 02:01:48;;;;;;;;;;;;;;;;;;5088378;28;19932;-66
2021/07/10 02:04:15;;;;;;;;;;;;;;;;;;5091075;28;19924;-68
2021/07/10 02:06:42;;;;;;;;;;;;;;;;;;5090222;28;20308;-67
2021/07/10 02:09:09;;;;;;;;;;;;;;;;;;5092667;28;19939;-66
2021/07/10 02:11:36;;;;;;;;;;;;;;;;;;5090574;28;19951;-66
2021/07/10 02:14:03;;;;;;;;;;;;;;;;;;5089586;28;19928;-66
2021/07/10 02:16:30;;;;;;;;;;;;;;;;;;5090630;28;19924;-66
2021/07/10 02:18:57;;;;;;;;;;;;;;;;;;5082538;28;20205;-66
2021/07/10 02:21:24;;;;;;;;;;;;;;;;;;5089515;28;19931;-66
2021/07/10 02:23:51;;;;;;;;;;;;;;;;;;5090489;28;19932;-69
2021/07/10 02:26:18;;;;;;;;;;;;;;;;;;5089486;28;19928;-65
2021/07/10 02:28:45;;;;;;;;;;;;;;;;;;5090445;28;20178;-65
2021/07/10 02:31:12;;;;;;;;;;;;;;;;;;5088535;28;19971;-66
2021/07/10 02:33:39;;;;;;;;;;;;;;;;;;5086148;28;19928;-64
2021/07/10 02:36:06;;;;;;;;;;;;;;;;;;5082523;28;19928;-67
2021/07/10 02:38:33;;;;;;;;;;;;;;;;;;5091380;28;19924;-66
2021/07/10 02:41:00;;;;;;;;;;;;;;;;;;5088406;28;19928;-68
2021/07/10 02:43:27;;;;;;;;;;;;;;;;;;5088699;28;19930;-65
2021/07/10 02:45:54;;;;;;;;;;;;;;;;;;5093073;28;19943;-65
2021/07/10 02:48:20;;;;;;;;;;;;;;;;;;5089376;28;20355;-64
2021/07/10 02:50:47;;;;;;;;;;;;;;;;;;5091404;28;19924;-65
2021/07/10 02:53:14;;;;;;;;;;;;;;;;;;5092050;28;19931;-65
2021/07/10 02:55:41;;;;;;;;;;;;;;;;;;5091983;28;19954;-65
2021/07/10 02:58:08;;;;;;;;;;;;;;;;;;5091500;28;19931;-66
2021/07/10 03:00:35;;;;;;;;;;;;;;;;;;5090240;28;19925;-63
2021/07/10 03:03:02;;;;;;;;;;;;;;;;;;5091123;28;19928;-67
2021/07/10 03:05:31;;;;;;;;;;;;;;;;;;5089914;28;20019;-64
2021/07/10 03:07:58;;;;;;;;;;;;;;;;;;5092826;28;19931;-63
2021/07/10 03:10:27;;;;;;;;;;;;;;;;;;5091072;28;19924;-65
2021/07/10 03:12:54;;;;;;;;;;;;;;;;;;5089263;28;19925;-65
2021/07/10 03:15:20;;;;;;;;;;;;;;;;;;5087870;28;19924;-66
2021/07/10 03:17:47;;;;;;;;;;;;;;;;;;5090221;28;19979;-65
2021/07/10 03:20:14;;;;;;;;;;;;;;;;;;5089101;28;19924;-65
2021/07/10 03:22:41;;;;;;;;;;;;;;;;;;5088436;28;19930;-67
2021/07/10 03:25:08;;;;;;;;;;;;;;;;;;5087338;28;19924;-65
2021/07/10 03:27:35;;;;;;;;;;;;;;;;;;5092599;28;19928;-65
2021/07/10 03:30:02;;;;;;;;;;;;;;;;;;5089728;28;19924;-66
2021/07/10 03:32:29;;;;;;;;;;;;;;;;;;5087231;28;20353;-65
2021/07/10 03:34:56;;;;;;;;;;;;;;;;;;5088443;28;19939;-64
2021/07/10 03:37:23;;;;;;;;;;;;;;;;;;5087151;22;20308;-70
2021/07/10 03:39:50;;;;;;;;;;;;;;;;;;5070145;28;19924;-69
2021/07/10 03:42:17;;;;;;;;;;;;;;;;;;5086556;28;19931;-69
2021/07/10 03:44:44;;;;;;;;;;;;;;;;;;5079852;28;20280;-69
2021/07/10 03:47:11;;;;;;;;;;;;;;;;;;5054867;28;20273;-69
2021/07/10 03:49:38;;;;;;;;;;;;;;;;;;5063218;28;20306;-69
2021/07/10 03:52:04;;;;;;;;;;;;;;;;;;5053279;28;19929;-69
2021/07/10 03:54:31;;;;;;;;;;;;;;;;;;5067903;28;19929;-69
2021/07/10 03:56:58;;;;;;;;;;;;;;;;;;5058967;28;20415;-69
2021/07/10 03:59:25;;;;;;;;;;;;;;;;;;5066296;28;19928;-69
2021/07/10 04:01:52;;;;;;;;;;;;;;;;;;5070612;28;19933;-69
2021/07/10 04:04:19;;;;;;;;;;;;;;;;;;5068734;28;19932;-68
2021/07/10 04:06:46;;;;;;;;;;;;;;;;;;5055192;28;19932;-68
2021/07/10 04:09:13;;;;;;;;;;;;;;;;;;5061686;28;19924;-69
2021/07/10 04:11:40;;;;;;;;;;;;;;;;;;5063925;28;19936;-69
2021/07/10 04:14:07;;;;;;;;;;;;;;;;;;5072109;28;19932;-69
2021/07/10 04:16:34;;;;;;;;;;;;;;;;;;5064267;28;19947;-69
2021/07/10 04:19:01;;;;;;;;;;;;;;;;;;5064554;28;19924;-68
2021/07/10 04:21:28;;;;;;;;;;;;;;;;;;5067715;28;19943;-69
2021/07/10 04:23:55;;;;;;;;;;;;;;;;;;5065994;28;19939;-68
2021/07/10 04:26:22;;;;;;;;;;;;;;;;;;5058097;28;19924;-69
2021/07/10 04:28:49;;;;;;;;;;;;;;;;;;5063822;28;19943;-68
2021/07/10 04:31:16;;;;;;;;;;;;;;;;;;5056060;28;20292;-68
2021/07/10 04:33:43;;;;;;;;;;;;;;;;;;5061473;28;19954;-68
2021/07/10 04:36:09;;;;;;;;;;;;;;;;;;5063084;28;19924;-69
2021/07/10 04:38:38;;;;;;;;;;;;;;;;;;5058505;28;20300;-69
2021/07/10 04:41:05;;;;;;;;;;;;;;;;;;5062359;28;19963;-69
2021/07/10 04:43:32;;;;;;;;;;;;;;;;;;5058711;28;20384;-68
2021/07/10 04:45:59;;;;;;;;;;;;;;;;;;5056225;28;19925;-69
2021/07/10 04:48:26;;;;;;;;;;;;;;;;;;5078229;28;20311;-69
2021/07/10 04:50:53;;;;;;;;;;;;;;;;;;5065936;28;19924;-69
2021/07/10 04:53:20;;;;;;;;;;;;;;;;;;5057904;28;19932;-69
2021/07/10 04:55:47;;;;;;;;;;;;;;;;;;5060763;28;19925;-69
2021/07/10 04:58:14;;;;;;;;;;;;;;;;;;5060987;28;19951;-68
2021/07/10 05:00:41;;;;;;;;;;;;;;;;;;5060801;28;20310;-68
2021/07/10 05:03:08;;;;;;;;;;;;;;;;;;5063362;28;19932;-68
2021/07/10 05:05:34;;;;;;;;;;;;;;;;;;5056436;28;19931;-71
2021/07/10 05:08:02;;;;;;;;;;;;;;;;;;5061214;28;19932;-71
2021/07/10 05:10:29;;;;;;;;;;;;;;;;;;5061557;28;19925;-72
2021/07/10 05:12:56;;;;;;;;;;;;;;;;;;5063386;28;19933;-71
2021/07/10 05:15:23;;;;;;;;;;;;;;;;;;5051720;28;19930;-70
2021/07/10 05:17:50;;;;;;;;;;;;;;;;;;5067499;28;20304;-73
2021/07/10 05:20:17;;;;;;;;;;;;;;;;;;5059118;28;19947;-71
2021/07/10 05:22:44;;;;;;;;;;;;;;;;;;5052236;28;19932;-70
2021/07/10 05:25:11;;;;;;;;;;;;;;;;;;5057950;28;19933;-71
2021/07/10 05:27:37;;;;;;;;;;;;;;;;;;5052418;28;19925;-72
2021/07/10 05:30:04;;;;;;;;;;;;;;;;;;5059621;28;19925;-71
2021/07/10 05:32:31;;;;;;;;;;;;;;;;;;5062593;28;19935;-71
2021/07/10 05:34:58;;;;;;;;;;;;;;;;;;5071513;28;19947;-70
2021/07/10 05:37:25;;;;;;;;;;;;;;;;;;5049602;28;19929;-72
2021/07/10 05:39:52;;;;;;;;;;;;;;;;;;5047267;28;19948;-73
2021/07/10 05:42:19;;;;;;;;;;;;;;;;;;5045108;28;20292;-72
2021/07/10 05:44:48;;;;;;;;;;;;;;;;;;5047061;28;20416;-70
2021/07/10 05:47:15;;;;;;;;;;;;;;;;;;5048404;28;19925;-70
2021/07/10 05:49:42;;;;;;;;;;;;;;;;;;5044604;28;19925;-73
2021/07/10 05:52:09;;;;;;;;;;;;;;;;;;5048519;28;19969;-72
2021/07/10 05:54:36;;;;;;;;;;;;;;;;;;5056142;28;19924;-70
2021/07/10 05:57:03;;;;;;;;;;;;;;;;;;5054752;28;19924;-71
2021/07/10 05:59:30;;;;;;;;;;;;;;;;;;5058843;28;19924;-72
2021/07/10 06:01:57;;;;;;;;;;;;;;;;;;5064117;28;19925;-71
2021/07/10 06:04:24;;;;;;;;;;;;;;;;;;5063645;28;19935;-71
2021/07/10 06:06:51;;;;;;;;;;;;;;;;;;5058596;28;19925;-71
2021/07/10 06:09:18;;;;;;;;;;;;;;;;;;5058534;28;20406;-72
2021/07/10 06:11:45;;;;;;;;;;;;;;;;;;5058157;28;19936;-73
2021/07/10 06:14:12;;;;;;;;;;;;;;;;;;5058547;28;19931;-70
2021/07/10 06:16:39;;;;;;;;;;;;;;;;;;5065596;28;19987;-69
2021/07/10 06:19:06;;;;;;;;;;;;;;;;;;5079984;28;19913;-69
2021/07/10 06:21:32;;;;;;;;;;;;;;;;;;5060800;28;20118;-72
2021/07/10 06:23:59;;;;;;;;;;;;;;;;;;5059452;28;20553;-73
2021/07/10 06:26:26;;;;;;;;;;;;;;;;;;5060488;28;19924;-72
2021/07/10 06:28:53;;;;;;;;;;;;;;;;;;5058823;28;19925;-69
2021/07/10 06:31:20;;;;;;;;;;;;;;;;;;5058368;28;19924;-69
2021/07/10 06:33:47;;;;;;;;;;;;;;;;;;5057927;28;19931;-69
2021/07/10 06:36:14;;;;;;;;;;;;;;;;;;5054914;28;20391;-69
2021/07/10 06:38:41;;;;;;;;;;;;;;;;;;5062050;28;19946;-68
2021/07/10 06:41:08;;;;;;;;;;;;;;;;;;5061340;28;19928;-69
2021/07/10 06:43:35;;;;;;;;;;;;;;;;;;5059695;28;19928;-70
2021/07/10 06:46:02;;;;;;;;;;;;;;;;;;5050485;28;20385;-69
2021/07/10 06:48:29;;;;;;;;;;;;;;;;;;5063916;28;19924;-69
2021/07/10 06:50:56;;;;;;;;;;;;;;;;;;5055206;28;20407;-69
2021/07/10 06:53:23;;;;;;;;;;;;;;;;;;5060263;28;19928;-69
2021/07/10 06:55:50;;;;;;;;;;;;;;;;;;5058908;28;19924;-68
2021/07/10 06:58:17;;;;;;;;;;;;;;;;;;5061710;28;19924;-68
2021/07/10 07:00:44;;;;;;;;;;;;;;;;;;5062808;28;19943;-69
2021/07/10 07:03:11;;;;;;;;;;;;;;;;;;5065151;28;20360;-69
2021/07/10 07:05:38;;;;;;;;;;;;;;;;;;5061922;28;19924;-71
2021/07/10 07:08:05;;;;;;;;;;;;;;;;;;5054891;28;19940;-70
2021/07/10 07:10:32;;;;;;;;;;;;;;;;;;5053219;28;19931;-69
2021/07/10 07:12:59;;;;;;;;;;;;;;;;;;5048814;28;19975;-67
2021/07/10 07:15:26;;;;;;;;;;;;;;;;;;5061115;28;19928;-70
2021/07/10 07:17:53;;;;;;;;;;;;;;;;;;5074428;28;19924;-67
2021/07/10 07:20:20;;;;;;;;;;;;;;;;;;5070632;28;20353;-67
2021/07/10 07:22:47;;;;;;;;;;;;;;;;;;5063576;28;19951;-69
2021/07/10 07:25:14;;;;;;;;;;;;;;;;;;5059584;28;19928;-69
2021/07/10 07:27:41;;;;;;;;;;;;;;;;;;5056544;28;20332;-67
2021/07/10 07:30:08;;;;;;;;;;;;;;;;;;5063541;28;19931;-68
2021/07/10 07:32:35;;;;;;;;;;;;;;;;;;5063679;28;19929;-68
2021/07/10 07:35:02;;;;;;;;;;;;;;;;;;5057497;28;19924;-67
2021/07/10 07:37:29;;;;;;;;;;;;;;;;;;5068551;28;20199;-67
2021/07/10 07:39:56;;;;;;;;;;;;;;;;;;5062743;28;19925;-67
2021/07/10 07:42:23;;;;;;;;;;;;;;;;;;5061608;28;19925;-68
2021/07/10 07:44:50;;;;;;;;;;;;;;;;;;5063246;28;19932;-67
2021/07/10 07:47:17;;;;;;;;;;;;;;;;;;5059452;28;19933;-68
2021/07/10 07:49:44;;;;;;;;;;;;;;;;;;5061760;28;19925;-68
2021/07/10 07:52:11;;;;;;;;;;;;;;;;;;5064176;28;19925;-69
2021/07/10 07:54:38;;;;;;;;;;;;;;;;;;5062937;28;19932;-68
2021/07/10 07:57:05;;;;;;;;;;;;;;;;;;5060810;28;20367;-68
2021/07/10 07:59:32;;;;;;;;;;;;;;;;;;5057299;28;20004;-67
2021/07/10 08:01:59;;;;;;;;;;;;;;;;;;5064345;28;19928;-67
2021/07/10 08:04:26;;;;;;;;;;;;;;;;;;5056363;28;19925;-69
2021/07/10 08:06:53;;;;;;;;;;;;;;;;;;5060968;28;19931;-68
2021/07/10 08:09:20;;;;;;;;;;;;;;;;;;5065216;28;19924;-68
2021/07/10 08:11:47;;;;;;;;;;;;;;;;;;5059249;28;19947;-67
2021/07/10 08:14:14;;;;;;;;;;;;;;;;;;5054607;28;19940;-68
2021/07/10 08:16:41;;;;;;;;;;;;;;;;;;5045978;28;19931;-66
2021/07/10 08:19:08;;;;;;;;;;;;;;;;;;5042195;28;20576;-68
2021/07/10 08:21:35;;;;;;;;;;;;;;;;;;5046094;28;19929;-68
2021/07/10 08:24:02;;;;;;;;;;;;;;;;;;5058389;28;19932;-69
2021/07/10 08:26:29;;;;;;;;;;;;;;;;;;5056048;28;19986;-70
2021/07/10 08:28:56;;;;;;;;;;;;;;;;;;5050325;28;19935;-68
2021/07/10 08:31:23;;;;;;;;;;;;;;;;;;5058284;28;20286;-66
2021/07/10 08:33:50;;;;;;;;;;;;;;;;;;5062895;28;19978;-71
2021/07/10 08:36:17;;;;;;;;;;;;;;;;;;5045722;28;19932;-69
2021/07/10 08:38:44;;;;;;;;;;;;;;;;;;5052735;28;20396;-68
2021/07/10 08:41:11;;;;;;;;;;;;;;;;;;5046865;28;19976;-69
2021/07/10 08:43:38;;;;;;;;;;;;;;;;;;5066763;28;20011;-68
2021/07/10 08:46:05;;;;;;;;;;;;;;;;;;5045675;28;19925;-69
2021/07/10 08:48:32;;;;;;;;;;;;;;;;;;5047047;28;20088;-70
2021/07/10 08:50:59;;;;;;;;;;;;;;;;;;5046115;28;20405;-71
2021/07/10 08:53:26;;;;;;;;;;;;;;;;;;5046514;28;20336;-69
2021/07/10 08:55:53;;;;;;;;;;;;;;;;;;5045904;28;20445;-70
2021/07/10 08:58:20;;;;;;;;;;;;;;;;;;5050597;28;19924;-68
2021/07/10 09:00:47;;;;;;;;;;;;;;;;;;5061730;28;19935;-67
2021/07/10 09:03:14;;;;;;;;;;;;;;;;;;5059858;28;19924;-68
2021/07/10 09:05:41;;;;;;;;;;;;;;;;;;5058347;28;19931;-69
2021/07/10 09:08:08;;;;;;;;;;;;;;;;;;5053899;28;19939;-71
2021/07/10 09:10:36;;;;;;;;;;;;;;;;;;5051437;28;19933;-67
2021/07/10 09:13:03;;;;;;;;;;;;;;;;;;5048881;28;20002;-70
2021/07/10 09:15:30;;;;;;;;;;;;;;;;;;5053601;28;19932;-67
2021/07/10 09:17:57;;;;;;;;;;;;;;;;;;5055183;28;19924;-68
2021/07/10 09:20:24;;;;;;;;;;;;;;;;;;5057261;28;20023;-67
2021/07/10 09:22:51;;;;;;;;;;;;;;;;;;5060661;28;19925;-69
2021/07/10 09:25:18;;;;;;;;;;;;;;;;;;5048790;28;19932;-69
2021/07/10 09:27:45;;;;;;;;;;;;;;;;;;5048213;28;19987;-67
2021/07/10 09:30:12;;;;;;;;;;;;;;;;;;5046990;28;19924;-68
2021/07/10 09:32:39;;;;;;;;;;;;;;;;;;5053082;28;19925;-67
2021/07/10 09:37:38;;;;;;;;;;;;;;;;;;5045964;28;19935;-64
2021/07/10 09:40:05;;;;;;;;;;;;;;;;;;5046941;28;19924;-66
2021/07/10 09:42:32;;;;;;;;;;;;;;;;;;5047635;28;19925;-65
2021/07/10 09:44:59;;;;;;;;;;;;;;;;;;5046734;28;19924;-67
2021/07/10 09:47:26;;;;;;;;;;;;;;;;;;5059913;28;20311;-67
2021/07/10 09:49:53;;;;;;;;;;;;;;;;;;5062258;28;19936;-66
2021/07/10 09:52:20;;;;;;;;;;;;;;;;;;5063926;28;19930;-66
2021/07/10 09:54:47;;;;;;;;;;;;;;;;;;5064873;28;20303;-67
2021/07/10 09:57:14;;;;;;;;;;;;;;;;;;5064201;28;19959;-66
2021/07/10 09:59:41;;;;;;;;;;;;;;;;;;5065063;28;19924;-66
2021/07/10 10:02:07;;;;;;;;;;;;;;;;;;5062656;28;19935;-66
2021/07/10 10:04:34;;;;;;;;;;;;;;;;;;5063025;28;20384;-66
2021/07/10 10:07:02;;;;;;;;;;;;;;;;;;5065762;28;19947;-67
2021/07/10 10:09:29;;;;;;;;;;;;;;;;;;5064017;28;19928;-66
2021/07/10 10:11:57;;;;;;;;;;;;;;;;;;5065384;28;20019;-67
2021/07/10 10:14:24;;;;;;;;;;;;;;;;;;5064057;28;20402;-67
2021/07/10 10:16:51;;;;;;;;;;;;;;;;;;5065391;28;19931;-67
2021/07/10 10:19:18;;;;;;;;;;;;;;;;;;5065923;28;19925;-68
2021/07/10 10:21:45;;;;;;;;;;;;;;;;;;5065946;28;19924;-68
2021/07/10 10:24:12;;;;;;;;;;;;;;;;;;5065219;28;20370;-67
2021/07/10 10:26:39;;;;;;;;;;;;;;;;;;5066232;28;19924;-67
2021/07/10 10:29:06;;;;;;;;;;;;;;;;;;5060591;28;20082;-67
2021/07/10 10:31:33;;;;;;;;;;;;;;;;;;5064589;28;19928;-66
2021/07/10 10:34:00;;;;;;;;;;;;;;;;;;5064738;28;19931;-66
2021/07/10 10:36:27;;;;;;;;;;;;;;;;;;5063927;28;20456;-67
2021/07/10 10:38:53;;;;;;;;;;;;;;;;;;5064492;28;19925;-65
2021/07/10 10:41:20;;;;;;;;;;;;;;;;;;5064326;28;19924;-65
2021/07/10 10:43:47;;;;;;;;;;;;;;;;;;5060414;28;19932;-65
2021/07/10 10:46:14;;;;;;;;;;;;;;;;;;5061025;28;19924;-65
2021/07/10 10:48:41;;;;;;;;;;;;;;;;;;5064584;28;19931;-65
2021/07/10 10:51:08;;;;;;;;;;;;;;;;;;5062484;28;19947;-64
2021/07/10 10:53:35;;;;;;;;;;;;;;;;;;5064616;28;19924;-65
2021/07/10 10:56:02;;;;;;;;;;;;;;;;;;5061894;28;19924;-65
2021/07/10 10:58:30;;;;;;;;;;;;;;;;;;5064832;28;21120;-65
2021/07/10 11:00:57;;;;;;;;;;;;;;;;;;5063359;28;19929;-65
2021/07/10 11:03:24;;;;;;;;;;;;;;;;;;5062952;28;20387;-65
2021/07/10 11:05:51;;;;;;;;;;;;;;;;;;5062250;28;20001;-64
2021/07/10 11:08:18;;;;;;;;;;;;;;;;;;5060674;28;19952;-64
2021/07/10 11:10:46;;;;;;;;;;;;;;;;;;5062067;28;19925;-64
2021/07/10 11:13:13;;;;;;;;;;;;;;;;;;5063130;28;19963;-65
2021/07/10 11:15:40;;;;;;;;;;;;;;;;;;5063494;28;19924;-65
2021/07/10 11:18:07;;;;;;;;;;;;;;;;;;5065496;28;19932;-65
2021/07/10 11:20:34;;;;;;;;;;;;;;;;;;5064861;28;19952;-65
2021/07/10 11:23:02;;;;;;;;;;;;;;;;;;5064165;28;19928;-64
2021/07/10 11:25:29;;;;;;;;;;;;;;;;;;5063147;28;19928;-66
2021/07/10 11:27:55;;;;;;;;;;;;;;;;;;5063791;28;19932;-64
2021/07/10 11:30:25;;;;;;;;;;;;;;;;;;5063262;28;19932;-64
2021/07/10 11:32:52;;;;;;;;;;;;;;;;;;5062784;28;20355;-66
2021/07/10 11:35:19;;;;;;;;;;;;;;;;;;5058800;28;19925;-65
2021/07/10 11:37:47;;;;;;;;;;;;;;;;;;5065681;28;19924;-66
2021/07/10 11:40:14;;;;;;;;;;;;;;;;;;5065354;28;19928;-63
2021/07/10 11:42:45;;;;;;;;;;;;;;;;;;5061351;28;19925;-64
2021/07/10 11:45:13;;;;;;;;;;;;;;;;;;5065013;28;19978;-64
2021/07/10 11:47:40;;;;;;;;;;;;;;;;;;5065929;28;19925;-67
2021/07/10 11:50:07;;;;;;;;;;;;;;;;;;5063302;28;19931;-65
2021/07/10 11:52:34;;;;;;;;;;;;;;;;;;5062168;28;19935;-66
2021/07/10 11:55:01;;;;;;;;;;;;;;;;;;5064468;28;20419;-66
2021/07/10 11:57:28;;;;;;;;;;;;;;;;;;5062596;28;19924;-65
2021/07/10 11:59:55;;;;;;;;;;;;;;;;;;5065577;28;19925;-65
2021/07/10 12:02:22;;;;;;;;;;;;;;;;;;5068167;28;19924;-66
2021/07/10 12:04:49;;;;;;;;;;;;;;;;;;5066561;28;19924;-66
2021/07/10 12:07:16;;;;;;;;;;;;;;;;;;5066052;28;19929;-66
2021/07/10 12:09:43;;;;;;;;;;;;;;;;;;5064025;28;19925;-65
2021/07/10 12:12:10;;;;;;;;;;;;;;;;;;5066605;28;20315;-65
2021/07/10 12:14:37;;;;;;;;;;;;;;;;;;5066934;28;19933;-65
2021/07/10 12:17:04;;;;;;;;;;;;;;;;;;5068185;28;21226;-65
2021/07/10 12:19:31;;;;;;;;;;;;;;;;;;5065622;28;19931;-65
2021/07/10 12:21:58;;;;;;;;;;;;;;;;;;5062024;28;19939;-65
2021/07/10 12:24:25;;;;;;;;;;;;;;;;;;5066056;28;19971;-65
2021/07/10 12:26:52;;;;;;;;;;;;;;;;;;5062344;28;19928;-66
2021/07/10 12:29:19;;;;;;;;;;;;;;;;;;5061453;28;19928;-65
2021/07/10 12:31:45;;;;;;;;;;;;;;;;;;5063355;28;20006;-64
2021/07/10 12:34:15;;;;;;;;;;;;;;;;;;5067434;28;20538;-65
2021/07/10 12:36:42;;;;;;;;;;;;;;;;;;5066420;28;20388;-65
2021/07/10 12:39:09;;;;;;;;;;;;;;;;;;5066187;28;19924;-65
2021/07/10 12:41:36;;;;;;;;;;;;;;;;;;5064641;28;19944;-66
2021/07/10 12:44:03;;;;;;;;;;;;;;;;;;5067156;28;20027;-66
2021/07/10 12:46:30;;;;;;;;;;;;;;;;;;5065181;28;19943;-66
2021/07/10 12:48:57;;;;;;;;;;;;;;;;;;5064385;28;19932;-66
2021/07/10 12:51:24;;;;;;;;;;;;;;;;;;5065509;28;19929;-67
2021/07/10 12:53:51;;;;;;;;;;;;;;;;;;5065334;28;19961;-66
2021/07/10 12:56:27;;;;;;;;;;;;;;;;;;5065155;28;20315;-66
2021/07/10 12:58:54;;;;;;;;;;;;;;;;;;5066238;28;19925;-66
2021/07/10 13:01:21;;;;;;;;;;;;;;;;;;5066138;28;20450;-66
2021/07/10 13:03:47;;;;;;;;;;;;;;;;;;5066807;28;19924;-66
2021/07/10 13:06:14;;;;;;;;;;;;;;;;;;5063886;28;19935;-64
2021/07/10 13:08:41;;;;;;;;;;;;;;;;;;5065529;28;20028;-66
2021/07/10 13:11:09;;;;;;;;;;;;;;;;;;5067412;28;19925;-67
2021/07/10 13:13:37;;;;;;;;;;;;;;;;;;5065711;28;19929;-66
2021/07/10 13:16:04;;;;;;;;;;;;;;;;;;5065604;28;19928;-67
2021/07/10 13:18:32;;;;;;;;;;;;;;;;;;5064992;28;19924;-68
2021/07/10 13:20:59;;;;;;;;;;;;;;;;;;5064050;28;19928;-66
2021/07/10 13:23:27;;;;;;;;;;;;;;;;;;5065661;28;20008;-69
2021/07/10 13:25:54;;;;;;;;;;;;;;;;;;5064982;28;19981;-67
2021/07/10 13:28:21;;;;;;;;;;;;;;;;;;5064958;28;20310;-66
2021/07/10 13:30:48;;;;;;;;;;;;;;;;;;5063505;28;19947;-68
2021/07/10 13:33:15;;;;;;;;;;;;;;;;;;5065290;28;19928;-66
2021/07/10 13:35:42;;;;;;;;;;;;;;;;;;5062978;28;19975;-67
2021/07/10 13:38:09;;;;;;;;;;;;;;;;;;5062590;28;19931;-68
2021/07/10 13:40:36;;;;;;;;;;;;;;;;;;5060852;28;19925;-68
2021/07/10 13:43:02;;;;;;;;;;;;;;;;;;5065230;28;19933;-64
2021/07/10 13:45:29;;;;;;;;;;;;;;;;;;5066101;28;20411;-64
2021/07/10 13:47:56;;;;;;;;;;;;;;;;;;5064417;28;20296;-63
2021/07/10 13:50:23;;;;;;;;;;;;;;;;;;5064282;28;19932;-65
2021/07/10 13:52:50;;;;;;;;;;;;;;;;;;5063720;28;19924;-65
2021/07/10 13:55:17;;;;;;;;;;;;;;;;;;5063124;28;19925;-65
2021/07/10 13:57:45;;;;;;;;;;;;;;;;;;5065662;28;19939;-68
2021/07/10 14:00:12;;;;;;;;;;;;;;;;;;5064699;28;19968;-67
2021/07/10 14:02:39;;;;;;;;;;;;;;;;;;5063440;28;19928;-67
2021/07/10 14:05:06;;;;;;;;;;;;;;;;;;5063679;28;19931;-69
2021/07/10 14:07:33;;;;;;;;;;;;;;;;;;5065314;28;19933;-68
2021/07/10 14:10:00;;;;;;;;;;;;;;;;;;5059544;28;19925;-67
2021/07/10 14:12:27;;;;;;;;;;;;;;;;;;5066066;28;20300;-67
2021/07/10 14:14:54;;;;;;;;;;;;;;;;;;5065104;28;19928;-67
2021/07/10 14:17:21;;;;;;;;;;;;;;;;;;5061472;28;20380;-68
2021/07/10 14:19:48;;;;;;;;;;;;;;;;;;5063198;28;19933;-67
2021/07/10 14:22:15;;;;;;;;;;;;;;;;;;5064426;28;19960;-68
2021/07/10 14:24:42;;;;;;;;;;;;;;;;;;5061738;28;20031;-66
2021/07/10 14:27:09;;;;;;;;;;;;;;;;;;5064041;28;20007;-67
2021/07/10 14:29:36;;;;;;;;;;;;;;;;;;5063190;28;19924;-67
2021/07/10 14:32:03;;;;;;;;;;;;;;;;;;5069635;28;19934;-65
2021/07/10 14:34:30;;;;;;;;;;;;;;;;;;5067391;28;19924;-64
2021/07/10 14:36:57;;;;;;;;;;;;;;;;;;5064321;28;19925;-66
2021/07/10 14:39:24;;;;;;;;;;;;;;;;;;5064418;28;19939;-66
2021/07/10 14:41:51;;;;;;;;;;;;;;;;;;5068336;28;19935;-67
2021/07/10 14:44:18;;;;;;;;;;;;;;;;;;5065521;28;19980;-66
2021/07/10 14:46:45;;;;;;;;;;;;;;;;;;5066609;28;19932;-66
2021/07/10 14:49:12;;;;;;;;;;;;;;;;;;5065283;28;19929;-66
2021/07/10 14:51:39;;;;;;;;;;;;;;;;;;5064444;28;19925;-67
2021/07/10 14:54:06;;;;;;;;;;;;;;;;;;5065441;28;19925;-67
2021/07/10 14:56:33;;;;;;;;;;;;;;;;;;5061688;28;20404;-66
2021/07/10 14:59:00;;;;;;;;;;;;;;;;;;5062030;28;19940;-65
2021/07/10 15:01:27;;;;;;;;;;;;;;;;;;5062296;28;19932;-67
2021/07/10 15:03:57;;;;;;;;;;;;;;;;;;5059477;28;20198;-67
2021/07/10 15:06:24;;;;;;;;;;;;;;;;;;5064381;28;19968;-67
2021/07/10 15:08:51;;;;;;;;;;;;;;;;;;5066548;28;19964;-68
2021/07/10 15:11:18;;;;;;;;;;;;;;;;;;5063076;28;20002;-68
2021/07/10 15:13:48;;;;;;;;;;;;;;;;;;5062040;28;19932;-66
2021/07/10 15:16:15;;;;;;;;;;;;;;;;;;5057309;28;19928;-66
2021/07/10 15:18:42;;;;;;;;;;;;;;;;;;5063712;28;19925;-64
2021/07/10 15:21:09;;;;;;;;;;;;;;;;;;5062237;28;19931;-65
2021/07/10 15:23:36;;;;;;;;;;;;;;;;;;5065843;28;19931;-66
2021/07/10 15:26:03;;;;;;;;;;;;;;;;;;5064374;28;19924;-66
2021/07/10 15:28:30;;;;;;;;;;;;;;;;;;5064972;28;20304;-66
2021/07/10 15:30:57;;;;;;;;;;;;;;;;;;5062281;28;19932;-65
2021/07/10 15:33:24;;;;;;;;;;;;;;;;;;5057578;28;19932;-67
2021/07/10 15:35:51;;;;;;;;;;;;;;;;;;5060019;28;20442;-66
2021/07/10 15:38:18;;;;;;;;;;;;;;;;;;5069308;28;19924;-66
2021/07/10 15:40:45;;;;;;;;;;;;;;;;;;5061944;28;19932;-66
2021/07/10 15:43:12;;;;;;;;;;;;;;;;;;5066166;28;19959;-67
2021/07/10 15:45:39;;;;;;;;;;;;;;;;;;5062422;28;19932;-66
2021/07/10 15:48:06;;;;;;;;;;;;;;;;;;5066430;28;19925;-65
2021/07/10 15:50:33;;;;;;;;;;;;;;;;;;5062598;28;20299;-64
2021/07/10 15:53:00;;;;;;;;;;;;;;;;;;5062824;28;19931;-66
2021/07/10 15:55:27;;;;;;;;;;;;;;;;;;5065622;28;19933;-66
2021/07/10 15:57:54;;;;;;;;;;;;;;;;;;5067205;28;19924;-67
2021/07/10 16:00:21;;;;;;;;;;;;;;;;;;5065995;28;20023;-66
2021/07/10 16:02:47;;;;;;;;;;;;;;;;;;5061536;28;20404;-66
2021/07/10 16:05:14;;;;;;;;;;;;;;;;;;5066973;28;20308;-67
2021/07/10 16:07:41;;;;;;;;;;;;;;;;;;5061937;28;20247;-67
2021/07/10 16:10:09;;;;;;;;;;;;;;;;;;5066189;28;19932;-67
2021/07/10 16:12:36;;;;;;;;;;;;;;;;;;5061901;28;19932;-68
2021/07/10 16:15:03;;;;;;;;;;;;;;;;;;5066583;28;20381;-67
2021/07/10 16:17:30;;;;;;;;;;;;;;;;;;5066081;28;20311;-68
2021/07/10 16:19:57;;;;;;;;;;;;;;;;;;5068931;28;20007;-66
2021/07/10 16:22:24;;;;;;;;;;;;;;;;;;5066385;28;19967;-67
2021/07/10 16:24:51;;;;;;;;;;;;;;;;;;5065115;28;20243;-67
2021/07/10 16:27:18;;;;;;;;;;;;;;;;;;5058349;28;20015;-67
2021/07/10 16:29:46;;;;;;;;;;;;;;;;;;5062959;28;19972;-69
2021/07/10 16:32:13;;;;;;;;;;;;;;;;;;5067174;28;20023;-68
2021/07/10 16:34:41;;;;;;;;;;;;;;;;;;5063905;28;19925;-68
2021/07/10 16:37:08;;;;;;;;;;;;;;;;;;5067304;28;19925;-69
2021/07/10 16:39:35;;;;;;;;;;;;;;;;;;5066135;28;19928;-68
2021/07/10 16:42:02;;;;;;;;;;;;;;;;;;5065402;28;21581;-69
2021/07/10 16:44:32;;;;;;;;;;;;;;;;;;5065265;28;19931;-68
2021/07/10 16:46:59;;;;;;;;;;;;;;;;;;5059348;28;20381;-65